Time;durP1;ratioP1;P1;durP2;ratioP2;P2;SDS_P1;SDS_P2;PMS_P1;PMS_P2;Temp;Humidity;BMP_temperature;BMP_pressure;BME280_temperature;BME280_humidity;BME280_pressure;Samples;Min_cycle;Max_cycle;Signal;HPM_P1;HPM_P2
2022/09/16 00:00:24;;;;;;;9.40;1.70;;;11.20;99.90;;;;;;5063628;28;20043;-49
2022/09/16 00:02:52;;;;;;;6.88;1.52;;;11.20;99.90;;;;;;5078958;28;20146;-48
2022/09/16 00:05:18;;;;;;;5.72;1.42;;;11.30;99.90;;;;;;5074622;28;20182;-48
2022/09/16 00:07:44;;;;;;;6.55;1.90;;;11.30;99.90;;;;;;5081822;28;20085;-49
2022/09/16 00:10:10;;;;;;;8.68;1.85;;;11.30;99.90;;;;;;5080959;28;20046;-46
2022/09/16 00:12:37;;;;;;;6.03;1.60;;;11.30;99.90;;;;;;5076857;28;20136;-42
2022/09/16 00:15:04;;;;;;;5.53;1.48;;;11.30;99.90;;;;;;5100834;27;20497;-41
2022/09/16 00:17:30;;;;;;;4.55;1.27;;;11.30;99.90;;;;;;5076798;28;20319;-42
2022/09/16 00:19:57;;;;;;;6.85;1.90;;;11.40;99.90;;;;;;5065057;28;20137;-42
2022/09/16 00:22:23;;;;;;;3.90;1.35;;;11.40;99.90;;;;;;5099475;27;20066;-49
2022/09/16 00:24:49;;;;;;;7.97;1.65;;;11.40;99.90;;;;;;5100609;28;20048;-44
2022/09/16 00:27:16;;;;;;;5.63;1.67;;;11.40;99.90;;;;;;5094556;27;20047;-42
2022/09/16 00:29:42;;;;;;;5.18;1.02;;;11.40;99.90;;;;;;5095486;27;20075;-44
2022/09/16 00:32:08;;;;;;;3.03;1.10;;;11.40;99.90;;;;;;5093670;28;20083;-49
2022/09/16 00:34:34;;;;;;;5.68;1.45;;;11.40;99.90;;;;;;5100325;28;20150;-48
2022/09/16 00:37:02;;;;;;;8.45;1.70;;;11.40;99.90;;;;;;5101812;28;20065;-50
2022/09/16 00:39:28;;;;;;;7.60;1.73;;;11.40;99.90;;;;;;5081327;27;20411;-49
2022/09/16 00:41:54;;;;;;;5.15;1.40;;;11.50;99.90;;;;;;5099411;27;20339;-44
2022/09/16 00:44:55;;;;;;;6.47;1.33;;;11.50;99.90;;;;;;5097068;28;20044;-43
2022/09/16 00:47:40;;;;;;;5.53;1.33;;;11.50;99.90;;;;;;5095178;28;20043;-44
2022/09/16 00:50:32;;;;;;;6.00;1.88;;;11.60;99.90;;;;;;5102398;27;20051;-44
2022/09/16 00:52:59;;;;;;;4.90;1.02;;;11.60;99.90;;;;;;5090545;28;20054;-48
2022/09/16 00:55:32;;;;;;;6.95;1.63;;;11.60;99.90;;;;;;5078115;28;20189;-50
2022/09/16 00:58:12;;;;;;;4.88;1.20;;;11.60;99.90;;;;;;5092176;28;20074;-50
2022/09/16 01:00:39;;;;;;;4.18;1.00;;;11.60;99.90;;;;;;5089169;27;20069;-48
2022/09/16 01:03:05;;;;;;;6.38;1.40;;;11.60;99.90;;;;;;5095602;27;20399;-42
2022/09/16 01:05:32;;;;;;;6.30;1.20;;;11.60;99.90;;;;;;5096711;28;20076;-43
2022/09/16 01:07:59;;;;;;;6.18;1.48;;;11.60;99.90;;;;;;5079460;28;20631;-41
2022/09/16 01:10:25;;;;;;;6.25;1.38;;;11.70;99.90;;;;;;5058708;28;20536;-44
2022/09/16 01:12:59;;;;;;;5.05;1.15;;;11.70;99.90;;;;;;5077321;28;20055;-49
2022/09/16 01:15:50;;;;;;;5.88;1.15;;;11.70;99.90;;;;;;5097085;28;20053;-49
2022/09/16 01:18:48;;;;;;;6.57;1.38;;;11.70;99.90;;;;;;5092747;27;20048;-44
2022/09/16 01:21:22;;;;;;;7.53;1.58;;;11.70;99.90;;;;;;5096659;28;20351;-42
2022/09/16 01:23:57;;;;;;;7.25;1.40;;;11.70;99.90;;;;;;5096599;27;20047;-51
2022/09/16 01:26:35;;;;;;;3.28;0.93;;;11.70;99.90;;;;;;5092008;28;20039;-52
2022/09/16 01:29:13;;;;;;;5.47;1.25;;;11.70;99.90;;;;;;5091657;28;20565;-50
2022/09/16 01:32:05;;;;;;;5.22;1.20;;;11.60;99.90;;;;;;5058796;28;20041;-47
2022/09/16 01:34:38;;;;;;;8.45;1.60;;;11.60;99.90;;;;;;5062449;28;20039;-48
2022/09/16 01:37:34;;;;;;;6.35;1.23;;;11.60;99.90;;;;;;5091984;28;20083;-48
2022/09/16 01:40:24;;;;;;;4.45;1.10;;;11.50;99.90;;;;;;5095463;28;20692;-49
2022/09/16 01:42:59;;;;;;;6.80;1.38;;;11.50;99.90;;;;;;5095015;27;20047;-47
2022/09/16 01:45:44;;;;;;;4.75;1.88;;;11.50;99.90;;;;;;5097269;28;20054;-48
2022/09/16 01:49:03;;;;;;;10.65;1.70;;;11.50;99.90;;;;;;5076877;28;20043;-48
2022/09/16 01:51:41;;;;;;;8.25;1.55;;;11.50;99.90;;;;;;5073687;28;20059;-48
2022/09/16 01:54:45;;;;;;;6.75;1.48;;;11.60;99.90;;;;;;5090906;28;20067;-48
2022/09/16 01:57:20;;;;;;;5.63;1.55;;;11.60;99.90;;;;;;5095801;28;20055;-45
2022/09/16 01:59:53;;;;;;;7.97;1.58;;;11.60;99.90;;;;;;5095688;28;20051;-45
2022/09/16 02:02:28;;;;;;;5.65;1.25;;;11.60;99.90;;;;;;5095395;28;20044;-42
2022/09/16 02:04:57;;;;;;;7.68;1.50;;;11.60;99.90;;;;;;5057125;28;20074;-43
2022/09/16 02:07:37;;;;;;;6.35;1.38;;;11.60;99.90;;;;;;5091663;28;20277;-44
2022/09/16 02:10:40;;;;;;;6.18;1.48;;;11.60;99.90;;;;;;5092303;28;20448;-43
2022/09/16 02:13:14;;;;;;;6.22;1.65;;;11.60;99.90;;;;;;5069231;28;20559;-46
2022/09/16 02:15:42;;;;;;;5.10;1.38;;;11.60;99.90;;;;;;5096878;27;20044;-42
2022/09/16 02:18:18;;;;;;;4.88;1.38;;;11.50;99.90;;;;;;5078632;28;20184;-43
2022/09/16 02:20:46;;;;;;;5.18;1.45;;;11.50;99.90;;;;;;5095694;28;20062;-43
2022/09/16 02:23:21;;;;;;;11.98;2.42;;;11.50;99.90;;;;;;5099715;28;20048;-44
2022/09/16 02:25:49;;;;;;;9.50;1.67;;;11.50;99.90;;;;;;5094999;28;20116;-44
2022/09/16 02:28:30;;;;;;;7.53;1.30;;;11.50;99.90;;;;;;5096162;28;20112;-46
2022/09/16 02:31:00;;;;;;;4.80;1.50;;;11.50;99.90;;;;;;5095860;28;20052;-43
2022/09/16 02:33:43;;;;;;;8.93;1.88;;;11.40;99.90;;;;;;5076066;28;20585;-45
2022/09/16 02:36:13;;;;;;;5.25;1.70;;;11.40;99.90;;;;;;5094719;27;20138;-44
2022/09/16 02:38:47;;;;;;;8.45;2.70;;;11.30;99.90;;;;;;5079984;28;20509;-43
2022/09/16 02:41:14;;;;;;;4.90;0.93;;;11.20;99.90;;;;;;5087457;28;20063;-45
2022/09/16 02:43:41;;;;;;;6.05;1.40;;;11.10;99.90;;;;;;5097432;28;20036;-46
2022/09/16 02:46:13;;;;;;;9.93;1.73;;;11.00;99.90;;;;;;5095482;27;20118;-42
2022/09/16 02:48:39;;;;;;;;;;;11.00;99.90;;;;;;5096211;28;20044;-43
2022/09/16 02:51:30;;;;;;;4.63;1.10;;;11.00;99.90;;;;;;5062488;28;20271;-43
2022/09/16 02:54:25;;;;;;;6.43;1.13;;;10.90;99.90;;;;;;5095614;28;20047;-46
2022/09/16 02:56:54;;;;;;;7.18;1.13;;;10.90;99.90;;;;;;5095904;27;20172;-48
2022/09/16 02:59:21;;;;;;;6.35;1.30;;;10.80;99.90;;;;;;5095990;28;21142;-45
2022/09/16 03:01:48;;;;;;;7.10;1.08;;;10.90;99.90;;;;;;5074441;28;20035;-44
2022/09/16 03:04:17;;;;;;;4.95;1.38;;;10.90;99.90;;;;;;5095050;28;20074;-51
2022/09/16 03:06:45;;;;;;;6.20;1.40;;;11.00;99.90;;;;;;5081348;27;20040;-48
2022/09/16 03:09:13;;;;;;;5.95;1.25;;;11.00;99.90;;;;;;5082986;27;20518;-52
2022/09/16 03:11:42;;;;;;;5.47;1.20;;;11.00;99.90;;;;;;5098870;28;20337;-50
2022/09/16 03:14:30;;;;;;;5.75;1.40;;;11.00;99.90;;;;;;5096880;28;20066;-44
2022/09/16 03:17:23;;;;;;;6.20;1.40;;;11.00;99.90;;;;;;5093171;28;20079;-43
2022/09/16 03:20:09;;;;;;;6.30;1.30;;;11.10;99.90;;;;;;5094165;28;20051;-40
2022/09/16 03:22:48;;;;;;;11.70;1.60;;;11.10;99.90;;;;;;5092660;28;20657;-44
2022/09/16 03:25:23;;;;;;;8.23;1.30;;;11.10;99.90;;;;;;5094524;28;20039;-45
2022/09/16 03:28:22;;;;;;;8.88;1.65;;;11.10;99.90;;;;;;5088478;28;20463;-43
2022/09/16 03:30:57;;;;;;;6.93;1.40;;;11.10;99.90;;;;;;5089548;28;20157;-43
2022/09/16 03:33:47;;;;;;;7.30;1.42;;;11.10;99.90;;;;;;5097221;28;20052;-42
2022/09/16 03:36:18;;;;;;;5.43;1.02;;;11.20;99.90;;;;;;5097717;28;20051;-43
2022/09/16 03:38:45;;;;;;;6.23;1.20;;;11.10;99.90;;;;;;5096254;28;20074;-46
2022/09/16 03:41:13;;;;;;;6.55;1.35;;;11.10;99.90;;;;;;5078808;28;20558;-46
2022/09/16 03:43:39;;;;;;;7.55;1.10;;;11.10;99.90;;;;;;5096445;28;20044;-44
2022/09/16 03:46:10;;;;;;;7.10;1.08;;;11.10;99.90;;;;;;5094735;28;20047;-45
2022/09/16 03:48:36;;;;;;;6.00;1.77;;;11.00;99.90;;;;;;5093828;28;20396;-44
2022/09/16 03:51:02;;;;;;;7.03;1.30;;;10.90;99.90;;;;;;5091288;28;20124;-43
2022/09/16 03:53:29;;;;;;;3.25;1.00;;;11.00;99.90;;;;;;5091717;28;20629;-43
2022/09/16 03:55:55;;;;;;;5.30;1.27;;;10.90;99.90;;;;;;5075010;28;20051;-47
2022/09/16 03:58:21;;;;;;;8.93;1.40;;;10.90;99.90;;;;;;5111995;27;20048;-45
2022/09/16 04:00:50;;;;;;;4.88;1.50;;;10.90;99.90;;;;;;5099615;28;20534;-43
2022/09/16 04:03:17;;;;;;;8.05;1.23;;;10.90;99.90;;;;;;5093816;28;20471;-43
2022/09/16 04:05:43;;;;;;;7.05;1.40;;;11.00;99.90;;;;;;5070487;28;20514;-47
2022/09/16 04:08:09;;;;;;;5.57;1.65;;;10.90;99.90;;;;;;5089667;28;20159;-44
2022/09/16 04:10:35;;;;;;;5.30;1.35;;;10.90;99.90;;;;;;5111272;27;20054;-46
2022/09/16 04:13:01;;;;;;;6.25;1.30;;;10.90;99.90;;;;;;5097864;28;20051;-44
2022/09/16 04:15:27;;;;;;;7.57;1.35;;;10.90;99.90;;;;;;5078888;28;20131;-45
2022/09/16 04:17:55;;;;;;;5.45;1.20;;;10.90;99.90;;;;;;5094458;28;20048;-41
2022/09/16 04:20:22;;;;;;;8.43;1.52;;;10.80;99.90;;;;;;5083996;28;20404;-44
2022/09/16 04:22:48;;;;;;;6.47;1.08;;;10.80;99.90;;;;;;5093898;28;20517;-44
2022/09/16 04:25:14;;;;;;;5.60;1.33;;;10.70;99.90;;;;;;5062013;28;20044;-50
2022/09/16 04:27:41;;;;;;;5.72;1.80;;;10.70;99.90;;;;;;5094595;28;20054;-47
2022/09/16 04:30:07;;;;;;;8.43;1.50;;;10.60;99.90;;;;;;5097357;28;20161;-47
2022/09/16 04:32:33;;;;;;;6.45;1.30;;;10.60;99.90;;;;;;5095232;28;20443;-48
2022/09/16 04:35:00;;;;;;;4.05;1.13;;;10.50;99.90;;;;;;5095053;28;20662;-45
2022/09/16 04:37:30;;;;;;;6.88;1.30;;;10.60;99.90;;;;;;5071437;28;20052;-45
2022/09/16 04:39:56;;;;;;;7.97;1.30;;;10.60;99.90;;;;;;5094845;28;20046;-47
2022/09/16 04:42:22;;;;;;;3.92;1.10;;;10.60;99.90;;;;;;5097479;28;20469;-51
2022/09/16 04:44:48;;;;;;;4.63;1.40;;;10.50;99.90;;;;;;5097450;28;20059;-50
2022/09/16 04:47:14;;;;;;;7.07;1.30;;;10.60;99.90;;;;;;5095898;28;20061;-49
2022/09/16 04:49:40;;;;;;;5.82;1.30;;;10.50;99.90;;;;;;5071406;28;20483;-47
2022/09/16 04:52:06;;;;;;;10.27;1.52;;;10.50;99.90;;;;;;5088858;28;20578;-48
2022/09/16 04:54:33;;;;;;;9.18;1.42;;;10.50;99.90;;;;;;5083102;28;20051;-50
2022/09/16 04:57:00;;;;;;;9.13;1.48;;;10.40;99.90;;;;;;5101370;28;20050;-51
2022/09/16 04:59:26;;;;;;;5.72;1.63;;;10.40;99.90;;;;;;5104425;27;20047;-47
2022/09/16 05:01:52;;;;;;;3.40;1.17;;;10.40;99.90;;;;;;5098374;27;20433;-51
2022/09/16 05:04:18;;;;;;;6.90;1.13;;;10.40;99.90;;;;;;5097635;28;20047;-50
2022/09/16 05:06:44;;;;;;;3.00;1.10;;;10.40;99.90;;;;;;5093350;28;20044;-43
2022/09/16 05:09:11;;;;;;;7.63;1.60;;;10.40;99.90;;;;;;5093086;28;20047;-41
2022/09/16 05:11:39;;;;;;;7.80;1.25;;;10.40;99.90;;;;;;5094790;27;20526;-41
2022/09/16 05:14:15;;;;;;;7.15;1.80;;;10.40;99.90;;;;;;5096309;28;20078;-44
2022/09/16 05:16:42;;;;;;;9.35;2.13;;;10.30;99.90;;;;;;5071001;28;20176;-44
2022/09/16 05:19:10;;;;;;;9.02;1.70;;;10.30;99.90;;;;;;5081634;28;20100;-42
2022/09/16 05:21:37;;;;;;;7.28;1.70;;;10.30;99.90;;;;;;5098243;28;20232;-42
2022/09/16 05:24:08;;;;;;;8.50;1.98;;;10.20;99.90;;;;;;5094599;28;20068;-42
2022/09/16 05:26:37;;;;;;;7.80;1.92;;;10.20;99.90;;;;;;5097417;28;21662;-42
2022/09/16 05:29:07;;;;;;;5.18;1.45;;;10.10;99.90;;;;;;5096652;28;20627;-46
2022/09/16 05:31:37;;;;;;;6.72;1.73;;;10.10;99.90;;;;;;5097898;28;20038;-43
2022/09/16 05:34:10;;;;;;;8.32;2.30;;;10.00;99.90;;;;;;5094438;28;20449;-41
2022/09/16 05:36:38;;;;;;;5.55;1.70;;;10.00;99.90;;;;;;5094957;27;20419;-44
2022/09/16 05:39:06;;;;;;;5.72;1.45;;;10.00;99.90;;;;;;5091268;28;20490;-41
2022/09/16 05:41:32;;;;;;;10.38;1.88;;;10.00;99.90;;;;;;5079080;27;20078;-41
2022/09/16 05:43:59;;;;;;;7.38;1.70;;;10.00;99.90;;;;;;5094413;28;20352;-45
2022/09/16 05:46:26;;;;;;;7.95;2.30;;;10.00;99.90;;;;;;5079961;28;20611;-44
2022/09/16 05:48:53;;;;;;;4.93;1.45;;;10.00;99.90;;;;;;5092539;28;20510;-42
2022/09/16 05:51:22;;;;;;;8.73;2.30;;;10.00;99.90;;;;;;5076435;28;20048;-48
2022/09/16 05:53:50;;;;;;;8.77;2.17;;;10.10;99.90;;;;;;5092195;28;20043;-51
2022/09/16 05:56:19;;;;;;;3.53;1.40;;;10.20;99.90;;;;;;5095838;28;20043;-50
2022/09/16 05:58:45;;;;;;;10.00;1.67;;;10.30;99.90;;;;;;5091014;28;20093;-42
2022/09/16 06:01:16;;;;;;;6.70;1.63;;;10.40;99.90;;;;;;5095843;28;20047;-44
2022/09/16 06:03:44;;;;;;;5.63;1.50;;;10.60;99.90;;;;;;5093363;28;20074;-51
2022/09/16 06:06:22;;;;;;;9.43;1.63;;;10.70;99.90;;;;;;5071853;28;20039;-51
2022/09/16 06:08:49;;;;;;;8.07;1.83;;;10.80;99.90;;;;;;5059565;28;20077;-50
2022/09/16 06:11:16;;;;;;;6.57;1.50;;;10.80;99.90;;;;;;5080152;28;20086;-48
2022/09/16 06:13:42;;;;;;;8.75;2.80;;;10.80;99.90;;;;;;5076975;28;20566;-48
2022/09/16 06:16:09;;;;;;;7.72;1.67;;;10.90;99.90;;;;;;5068633;28;20063;-49
2022/09/16 06:18:37;;;;;;;10.43;1.85;;;10.90;99.90;;;;;;5062802;28;20046;-43
2022/09/16 06:21:06;;;;;;;10.18;1.60;;;11.10;99.90;;;;;;5080046;28;20487;-45
2022/09/16 06:23:34;;;;;;;9.07;1.58;;;11.20;99.90;;;;;;5077786;28;20479;-45
2022/09/16 06:26:04;;;;;;;13.55;1.83;;;11.40;99.90;;;;;;5097949;28;20369;-45
2022/09/16 06:28:31;;;;;;;13.68;2.08;;;11.50;99.90;;;;;;5114559;27;20577;-48
2022/09/16 06:31:14;;;;;;;9.82;1.70;;;11.60;99.90;;;;;;5095978;28;20123;-47
2022/09/16 06:33:41;;;;;;;7.15;1.50;;;11.70;99.90;;;;;;5093923;28;20040;-41
2022/09/16 06:41:22;;;;;;;10.35;1.73;;;11.70;99.90;;;;;;5099158;28;20090;-45
2022/09/16 06:43:52;;;;;;;9.82;1.52;;;11.80;99.90;;;;;;5097554;28;20043;-44
2022/09/16 06:46:23;;;;;;;8.75;2.03;;;12.00;99.90;;;;;;5093932;28;20098;-43
2022/09/16 06:48:52;;;;;;;7.70;1.23;;;12.20;99.90;;;;;;5089739;28;20457;-45
2022/09/16 06:51:23;;;;;;;9.63;1.50;;;12.40;99.90;;;;;;5086739;28;20043;-43
2022/09/16 06:53:51;;;;;;;7.72;1.33;;;12.60;99.90;;;;;;5091803;28;20616;-42
2022/09/16 06:56:19;;;;;;;6.18;1.13;;;12.80;99.90;;;;;;5099211;28;20043;-44
2022/09/16 06:58:47;;;;;;;7.20;1.70;;;12.90;99.90;;;;;;5097547;28;20039;-49
2022/09/16 07:01:25;;;;;;;10.93;1.88;;;13.10;99.90;;;;;;5071196;28;20359;-51
2022/09/16 07:03:52;;;;;;;8.77;1.42;;;13.30;99.90;;;;;;5099189;28;20047;-41
2022/09/16 07:06:20;;;;;;;11.45;2.28;;;13.50;99.90;;;;;;5096656;28;20501;-42
2022/09/16 07:08:46;;;;;;;9.38;1.48;;;13.70;99.90;;;;;;5088877;28;20356;-48
2022/09/16 07:11:23;;;;;;;9.10;1.60;;;14.10;99.90;;;;;;5096592;28;20051;-44
2022/09/16 07:13:50;;;;;;;9.20;1.85;;;14.20;99.90;;;;;;5095634;28;20119;-42
2022/09/16 07:16:22;;;;;;;9.60;1.88;;;14.50;99.90;;;;;;5095723;28;20047;-44
2022/09/16 07:18:55;;;;;;;8.43;1.75;;;14.70;99.90;;;;;;5093421;28;20498;-48
2022/09/16 07:21:27;;;;;;;6.15;1.42;;;15.10;99.90;;;;;;5094746;28;20065;-49
2022/09/16 07:23:54;;;;;;;;;;;15.10;99.90;;;;;;5091365;28;20433;-48
2022/09/16 07:26:22;;;;;;;8.63;1.67;;;14.80;99.90;;;;;;5057951;28;20079;-48
2022/09/16 07:28:49;;;;;;;10.38;1.80;;;14.90;99.90;;;;;;5095718;28;20054;-47
2022/09/16 07:31:18;;;;;;;7.43;1.80;;;15.20;99.90;;;;;;5088638;28;20078;-48
2022/09/16 07:33:47;;;;;;;8.38;1.35;;;15.50;99.90;;;;;;5047102;28;20547;-48
2022/09/16 07:36:18;;;;;;;10.38;1.70;;;15.70;99.90;;;;;;5097094;28;20493;-46
2022/09/16 07:38:45;;;;;;;4.80;1.35;;;16.00;99.90;;;;;;5097401;28;20079;-43
2022/09/16 07:41:13;;;;;;;6.55;1.52;;;16.10;99.90;;;;;;5096616;28;20174;-48
2022/09/16 07:43:40;;;;;;;8.95;1.50;;;16.50;99.90;;;;;;5073831;28;20043;-43
2022/09/16 07:46:09;;;;;;;8.02;1.58;;;17.00;99.90;;;;;;5088138;28;21250;-47
2022/09/16 07:48:36;;;;;;;7.38;1.35;;;17.40;99.90;;;;;;5095617;28;20491;-48
2022/09/16 07:51:05;;;;;;;10.55;1.73;;;17.60;99.90;;;;;;5096916;28;20075;-48
2022/09/16 07:53:33;;;;;;;7.85;1.77;;;17.60;99.90;;;;;;5094733;28;20043;-51
2022/09/16 07:56:07;;;;;;;7.38;1.40;;;18.00;99.90;;;;;;5095893;28;20079;-48
2022/09/16 07:58:33;;;;;;;8.35;1.55;;;17.90;99.90;;;;;;5093746;28;20055;-46
2022/09/16 08:01:00;;;;;;;9.40;1.42;;;18.20;99.90;;;;;;5095737;28;20048;-46
2022/09/16 08:03:26;;;;;;;10.18;1.55;;;18.60;99.90;;;;;;5040197;28;20043;-47
2022/09/16 08:05:58;;;;;;;8.45;1.48;;;18.50;99.90;;;;;;5109592;28;20372;-50
2022/09/16 08:08:24;;;;;;;9.13;1.73;;;18.80;99.90;;;;;;5095475;28;20232;-49
2022/09/16 08:10:54;;;;;;;7.75;1.73;;;18.80;99.90;;;;;;5074916;28;20039;-52
2022/09/16 08:13:21;;;;;;;7.85;1.85;;;19.00;99.90;;;;;;5070794;28;20792;-51
2022/09/16 08:15:47;;;;;;;8.32;1.77;;;19.00;99.90;;;;;;5075761;28;20043;-52
2022/09/16 08:18:13;;;;;;;6.57;1.38;;;19.00;99.90;;;;;;5077738;28;20051;-52
2022/09/16 08:20:39;;;;;;;5.28;1.40;;;19.00;99.90;;;;;;5094798;28;20587;-52
2022/09/16 08:23:06;;;;;;;5.90;1.30;;;19.20;99.90;;;;;;5092143;28;20142;-50
2022/09/16 08:25:32;;;;;;;7.68;1.50;;;19.30;99.90;;;;;;5107238;27;20062;-53
2022/09/16 08:27:58;;;;;;;9.05;1.92;;;19.30;99.90;;;;;;5094300;28;20170;-48
2022/09/16 08:30:24;;;;;;;8.98;1.75;;;19.20;99.90;;;;;;5079746;28;20051;-53
2022/09/16 08:32:57;;;;;;;9.65;2.05;;;19.60;99.90;;;;;;5095952;28;20047;-51
2022/09/16 08:35:24;;;;;;;11.00;1.52;;;19.60;99.90;;;;;;5095133;28;20125;-53
2022/09/16 08:37:51;;;;;;;8.75;1.50;;;19.80;99.90;;;;;;5095120;27;20451;-56
2022/09/16 08:40:23;;;;;;;10.25;1.98;;;19.90;99.90;;;;;;5079538;28;20494;-52
2022/09/16 08:43:03;;;;;;;7.72;1.90;;;19.80;99.90;;;;;;5096199;28;20147;-43
2022/09/16 08:45:40;;;;;;;7.75;1.67;;;19.60;99.50;;;;;;5096236;28;20052;-50
2022/09/16 08:48:12;;;;;;;8.77;1.90;;;19.00;99.90;;;;;;5062405;28;20040;-49
2022/09/16 08:50:45;;;;;;;8.30;1.75;;;18.80;99.90;;;;;;5098564;28;20445;-50
2022/09/16 08:53:20;;;;;;;7.47;1.73;;;18.50;99.90;;;;;;5095092;27;20062;-46
2022/09/16 08:55:49;;;;;;;9.40;1.92;;;18.60;99.90;;;;;;5097684;28;20138;-44
2022/09/16 08:58:17;;;;;;;9.27;1.98;;;19.30;99.90;;;;;;5092595;28;20043;-45
2022/09/16 09:00:46;;;;;;;11.23;1.83;;;19.70;99.90;;;;;;5095352;28;20065;-42
2022/09/16 09:03:18;;;;;;;10.40;1.73;;;20.30;99.90;;;;;;5094153;28;20603;-44
2022/09/16 09:05:52;;;;;;;10.10;2.05;;;20.00;99.90;;;;;;5078443;28;20051;-44
2022/09/16 09:08:43;;;;;;;9.73;1.98;;;19.40;99.90;;;;;;5078556;28;20062;-44
2022/09/16 09:11:36;;;;;;;8.55;2.35;;;18.80;99.90;;;;;;5077760;28;20043;-49
2022/09/16 09:14:20;;;;;;;9.05;1.98;;;18.00;99.90;;;;;;5074497;28;20100;-48
2022/09/16 09:17:23;;;;;;;9.70;1.65;;;18.30;99.90;;;;;;5091234;28;20044;-48
2022/09/16 09:20:11;;;;;;;7.13;1.92;;;19.10;99.90;;;;;;5095622;28;20706;-51
2022/09/16 09:22:37;;;;;;;6.35;1.50;;;20.20;94.40;;;;;;5078131;28;20326;-53
2022/09/16 09:25:27;;;;;;;9.75;2.65;;;20.60;93.00;;;;;;5097463;28;20100;-49
2022/09/16 09:28:02;;;;;;;6.00;1.30;;;20.80;87.20;;;;;;5095787;28;20039;-49
2022/09/16 09:30:31;;;;;;;8.48;1.77;;;21.10;84.90;;;;;;5093238;28;20083;-44
2022/09/16 09:33:05;;;;;;;11.13;1.35;;;21.30;76.40;;;;;;5098750;28;20553;-46
2022/09/16 09:35:50;;;;;;;7.57;1.90;;;21.40;70.70;;;;;;5075864;28;20061;-46
2022/09/16 09:38:46;;;;;;;7.30;2.65;;;21.80;71.00;;;;;;5096038;28;20086;-47
2022/09/16 09:41:18;;;;;;;6.97;1.63;;;22.20;71.10;;;;;;5095146;28;20498;-44
2022/09/16 09:43:54;;;;;;;10.30;2.13;;;22.40;72.00;;;;;;5094816;28;20074;-52
2022/09/16 09:46:36;;;;;;;7.60;1.75;;;22.70;65.90;;;;;;5092669;28;20385;-53
2022/09/16 09:49:13;;;;;;;8.27;1.65;;;22.60;65.90;;;;;;5096774;28;20522;-57
2022/09/16 09:51:43;;;;;;;8.25;1.85;;;22.60;63.70;;;;;;5060920;28;20066;-59
2022/09/16 09:54:32;;;;;;;5.22;1.35;;;22.80;64.40;;;;;;5094888;27;20136;-42
2022/09/16 09:57:31;;;;;;;8.10;1.75;;;22.80;58.80;;;;;;5093179;28;20815;-43
2022/09/16 10:00:10;;;;;;;6.03;1.20;;;22.70;58.60;;;;;;5067103;28;20047;-42
2022/09/16 10:02:41;;;;;;;7.40;1.40;;;22.50;59.40;;;;;;5094489;28;20119;-60
2022/09/16 10:05:30;;;;;;;11.40;1.80;;;22.70;60.00;;;;;;5090544;27;20078;-60
2022/09/16 10:08:05;;;;;;;6.88;1.65;;;23.10;57.80;;;;;;5070858;28;20044;-59
2022/09/16 10:10:34;;;;;;;7.20;1.58;;;22.60;57.10;;;;;;5106141;27;20431;-59
2022/09/16 10:13:11;;;;;;;8.18;1.60;;;22.50;58.60;;;;;;5075826;28;20047;-60
2022/09/16 10:15:38;;;;;;;7.05;1.48;;;23.00;57.40;;;;;;5089710;28;20059;-60
2022/09/16 10:18:22;;;;;;;7.47;1.30;;;23.20;59.00;;;;;;5091926;27;20047;-60
2022/09/16 10:21:09;;;;;;;7.03;1.38;;;22.30;57.10;;;;;;5090010;28;20464;-61
2022/09/16 10:23:37;;;;;;;10.65;1.83;;;21.60;60.00;;;;;;5073756;28;20051;-59
2022/09/16 10:26:07;;;;;;;6.72;1.55;;;20.70;61.40;;;;;;5091489;28;20044;-58
2022/09/16 10:28:33;;;;;;;6.72;1.42;;;19.90;63.20;;;;;;5092902;27;20082;-58
2022/09/16 10:31:00;;;;;;;8.15;1.65;;;18.90;68.30;;;;;;5057222;28;20131;-58
2022/09/16 10:33:33;;;;;;;7.25;1.60;;;18.30;81.00;;;;;;5090534;28;20429;-58
2022/09/16 10:36:07;;;;;;;8.82;1.40;;;17.30;97.00;;;;;;5089691;28;20735;-59
2022/09/16 10:38:42;;;;;;;7.53;1.80;;;17.10;99.00;;;;;;5089176;28;20686;-46
2022/09/16 10:41:33;;;;;;;7.07;2.05;;;17.30;99.30;;;;;;5091799;27;20106;-47
2022/09/16 10:44:02;;;;;;;5.55;1.60;;;18.20;98.50;;;;;;5088414;28;20830;-44
2022/09/16 10:46:29;;;;;;;7.57;1.77;;;19.20;95.10;;;;;;5089934;28;20051;-42
2022/09/16 10:49:07;;;;;;;6.75;1.70;;;20.20;92.30;;;;;;5069810;28;20136;-58
2022/09/16 10:51:34;;;;;;;8.82;1.50;;;21.30;89.00;;;;;;5087735;27;20050;-59
2022/09/16 10:54:04;;;;;;;8.05;1.77;;;21.70;89.10;;;;;;5090888;28;20052;-45
2022/09/16 10:56:46;;;;;;;10.85;2.40;;;21.80;81.90;;;;;;5090159;28;20101;-44
2022/09/16 10:59:14;;;;;;;9.82;1.73;;;21.90;74.90;;;;;;5090392;28;20488;-48
2022/09/16 11:02:25;;;;;;;7.80;1.77;;;21.70;72.00;;;;;;5056629;28;20501;-45
2022/09/16 11:05:01;;;;;;;6.38;1.38;;;22.20;71.00;;;;;;5088943;28;20298;-46
2022/09/16 11:07:35;;;;;;;6.65;1.33;;;21.60;67.60;;;;;;5107477;27;20146;-43
2022/09/16 11:10:13;;;;;;;10.02;1.67;;;22.40;68.30;;;;;;5091094;28;20043;-44
2022/09/16 11:13:01;;;;;;;7.07;1.50;;;22.50;64.60;;;;;;5091046;28;20573;-58
2022/09/16 11:15:36;;;;;;;5.85;1.27;;;22.40;64.40;;;;;;5090968;28;20047;-59
2022/09/16 11:18:05;;;;;;;4.88;1.35;;;23.00;64.80;;;;;;5072676;28;20048;-58
2022/09/16 11:20:53;;;;;;;7.93;1.58;;;23.00;62.40;;;;;;5090362;28;20063;-44
2022/09/16 11:23:27;;;;;;;8.07;1.90;;;23.30;62.20;;;;;;5093213;28;20047;-58
2022/09/16 11:26:09;;;;;;;6.63;1.48;;;22.90;60.40;;;;;;5089322;28;20051;-45
2022/09/16 11:28:57;;;;;;;3.60;1.10;;;21.30;60.80;;;;;;5091742;28;20104;-43
2022/09/16 11:31:55;;;;;;;8.50;1.17;;;20.30;61.60;;;;;;5074932;28;20378;-45
2022/09/16 11:34:37;;;;;;;6.22;1.30;;;20.30;64.00;;;;;;5065846;28;20887;-46
2022/09/16 11:37:43;;;;;;;5.00;1.33;;;21.40;63.20;;;;;;5090537;28;20055;-45
2022/09/16 11:40:26;;;;;;;8.70;1.48;;;22.20;61.00;;;;;;5050507;28;20075;-45
2022/09/16 11:43:40;;;;;;;5.15;1.10;;;22.70;60.70;;;;;;5083542;28;20055;-46
2022/09/16 11:46:17;;;;;;;4.30;0.98;;;23.20;59.50;;;;;;5087138;28;20386;-58
2022/09/16 11:48:50;;;;;;;5.22;1.50;;;23.10;61.30;;;;;;5092506;28;20051;-58
2022/09/16 11:51:40;;;;;;;10.93;2.17;;;22.50;61.40;;;;;;5075370;28;20136;-58
2022/09/16 11:54:19;;;;;;;4.88;1.05;;;21.80;62.40;;;;;;5093579;28;20060;-58
2022/09/16 11:56:53;;;;;;;7.03;1.30;;;21.00;65.60;;;;;;5090663;28;20568;-44
2022/09/16 11:59:39;;;;;;;5.75;1.55;;;20.00;84.40;;;;;;5090621;28;20465;-43
2022/09/16 12:02:26;;;;;;;5.93;1.23;;;19.20;94.60;;;;;;5092541;28;20039;-46
2022/09/16 12:04:56;;;;;;;7.18;1.67;;;19.50;97.60;;;;;;5079048;28;20499;-46
2022/09/16 12:07:31;;;;;;;7.60;1.35;;;20.30;96.20;;;;;;5093151;28;20043;-45
2022/09/16 12:10:16;;;;;;;5.38;1.30;;;21.20;95.00;;;;;;5093023;28;20546;-46
2022/09/16 12:12:47;;;;;;;7.57;1.77;;;21.70;93.10;;;;;;5076434;27;20130;-47
2022/09/16 12:15:19;;;;;;;6.87;1.80;;;22.40;90.00;;;;;;5098973;27;20104;-44
2022/09/16 12:18:02;;;;;;;8.38;1.90;;;23.00;84.20;;;;;;5093803;28;21182;-46
2022/09/16 12:20:33;;;;;;;7.68;1.50;;;22.00;83.80;;;;;;5094393;28;20494;-47
2022/09/16 12:23:08;;;;;;;;;;;21.60;85.80;;;;;;5096084;28;20086;-44
2022/09/16 12:25:44;;;;;;;9.80;1.73;;;20.00;96.20;;;;;;5098391;28;20379;-42
2022/09/16 12:28:42;;;;;;;6.38;1.30;;;18.80;99.90;;;;;;5097300;28;21102;-42
2022/09/16 12:31:22;;;;;;;5.03;1.33;;;17.90;99.90;;;;;;5094476;28;20039;-43
2022/09/16 12:34:17;;;;;;;7.10;1.20;;;17.10;99.90;;;;;;5098395;28;20457;-42
2022/09/16 12:36:48;;;;;;;7.00;1.17;;;17.00;99.90;;;;;;5090919;28;20130;-42
2022/09/16 12:39:14;;;;;;;6.15;1.30;;;17.00;99.90;;;;;;5079155;28;20146;-45
2022/09/16 12:42:01;;;;;;;9.30;1.23;;;17.70;99.90;;;;;;5076094;28;20044;-47
2022/09/16 12:44:54;;;;;;;8.43;1.35;;;18.70;99.90;;;;;;5056628;28;20119;-46
2022/09/16 12:47:28;;;;;;;8.93;1.60;;;19.60;99.90;;;;;;5096784;28;20055;-51
2022/09/16 12:50:14;;;;;;;6.53;1.17;;;20.50;99.90;;;;;;5096506;27;20059;-53
2022/09/16 12:53:13;;;;;;;5.72;1.20;;;20.70;99.90;;;;;;5076124;28;20226;-43
2022/09/16 12:55:48;;;;;;;7.88;1.55;;;21.30;99.90;;;;;;5099358;27;20040;-46
2022/09/16 12:58:42;;;;;;;8.13;1.65;;;21.30;96.20;;;;;;5098521;28;20047;-48
2022/09/16 13:01:20;;;;;;;5.72;1.60;;;20.40;96.00;;;;;;5094234;28;20367;-54
2022/09/16 13:03:52;;;;;;;6.53;1.42;;;20.10;98.60;;;;;;5094564;28;20035;-52
2022/09/16 13:06:32;;;;;;;7.78;2.00;;;18.90;99.40;;;;;;5061069;28;20474;-51
2022/09/16 13:09:26;;;;;;;10.45;2.45;;;19.40;98.80;;;;;;5095429;28;20039;-53
2022/09/16 13:11:58;;;;;;;7.05;1.50;;;19.90;97.50;;;;;;5095130;28;20043;-52
2022/09/16 13:14:31;;;;;;;8.68;1.77;;;21.00;93.60;;;;;;5089412;27;20163;-51
2022/09/16 13:17:01;;;;;;;6.78;1.73;;;21.20;89.00;;;;;;5074202;28;20405;-50
2022/09/16 13:19:50;;;;;;;7.80;1.75;;;21.40;86.80;;;;;;5095227;28;20043;-49
2022/09/16 13:22:23;;;;;;;8.30;1.70;;;21.20;83.20;;;;;;5097603;28;20071;-45
2022/09/16 13:25:17;;;;;;;9.30;1.80;;;21.60;81.70;;;;;;5095734;27;20711;-46